BAW744 EGLL-RJTT
Flight info
| Callsign | BAW744 |
|---|---|
| Flight time | N/A |
| Altitude | 33000 |
| Route | DET L6 DVR L9 KONAN UL607 MATUG DCT GUBAX DCT KOMIB L984 SULUS Z650 VEMUT DCT PEPIK DCT BERVA DCT ERGOM DCT BUDOP DCT DVA DCT BULEN DCT RIXEN UA17 YAVRU UA4 SIV UW706 TBN UN61 NOLGA DCT BARAD DCT SUBUT T916 BALUN/K0920F330 T916 ARNUS/K0911F350 T916 MIHOS N147 GENGA DCT SARIN/K0906S1070 A368 FKG W188 ADPET/K0896S1130 W188 LIKMI W270 DKO W69 HUR B339 LADIX W34 VAPGU W100 ORAVA W201 UNSEK A326 DONVO/K0902S1190 G597 AGAVO/N0487F390 Y644 EGOBA Y697 LANAT Y71 XAC |
| Aircraft | A35K/H-SDE2E3GHIJ3J4J5LM1ORWXY/LB1D1 |
Departure
| Time | 2026-05-07 21:55 |
|---|---|
| Airport | London Heathrow Airport (EGLL) |
Arrival
| Time | N/A |
|---|---|
| Airport | Tokyo Haneda International Airport (RJTT) |
| Time | Latitude | Longitude | Altitude | Speed | Heading |
|---|---|---|---|---|---|
| 2026-05-07 20:58 | 51.46850 | -0.46349 | 95 ft | 0 kts | 55° |
| 2026-05-07 21:41 | 51.46841 | -0.46369 | 96 ft | 4 kts | 55° |
| 2026-05-07 21:41 | 51.46826 | -0.46404 | 94 ft | 4 kts | 56° |
| 2026-05-07 21:41 | 51.46814 | -0.46435 | 95 ft | 4 kts | 82° |
| 2026-05-07 21:41 | 51.46819 | -0.46470 | 95 ft | 4 kts | 135° |
| 2026-05-07 21:42 | 51.46840 | -0.46496 | 94 ft | 2 kts | 144° |
| 2026-05-07 21:42 | 51.46840 | -0.46497 | 93 ft | 0 kts | 144° |
| 2026-05-07 21:47 | 51.46831 | -0.46486 | 97 ft | 7 kts | 143° |
| 2026-05-07 21:47 | 51.46763 | -0.46423 | 100 ft | 11 kts | 174° |
| 2026-05-07 21:47 | 51.46696 | -0.46423 | 101 ft | 9 kts | 186° |
| 2026-05-07 21:47 | 51.46664 | -0.46484 | 103 ft | 7 kts | 260° |
| 2026-05-07 21:48 | 51.46659 | -0.46563 | 103 ft | 8 kts | 267° |
| 2026-05-07 21:48 | 51.46660 | -0.46677 | 103 ft | 13 kts | 270° |
| 2026-05-07 21:48 | 51.46659 | -0.46833 | 103 ft | 15 kts | 270° |
| 2026-05-07 21:48 | 51.46658 | -0.47007 | 100 ft | 17 kts | 268° |
| 2026-05-07 21:49 | 51.46657 | -0.47207 | 97 ft | 19 kts | 270° |
| 2026-05-07 21:49 | 51.46657 | -0.47384 | 95 ft | 10 kts | 270° |
| 2026-05-07 21:49 | 51.46657 | -0.47503 | 94 ft | 11 kts | 269° |
| 2026-05-07 21:49 | 51.46655 | -0.47637 | 96 ft | 12 kts | 269° |
| 2026-05-07 21:50 | 51.46655 | -0.47774 | 95 ft | 12 kts | 270° |
| 2026-05-07 21:50 | 51.46654 | -0.47907 | 95 ft | 12 kts | 269° |
| 2026-05-07 21:50 | 51.46652 | -0.48028 | 96 ft | 10 kts | 269° |
| 2026-05-07 21:50 | 51.46653 | -0.48133 | 98 ft | 9 kts | 272° |
| 2026-05-07 21:51 | 51.46654 | -0.48241 | 99 ft | 12 kts | 270° |
| 2026-05-07 21:51 | 51.46653 | -0.48384 | 100 ft | 13 kts | 269° |
| 2026-05-07 21:51 | 51.46652 | -0.48532 | 100 ft | 13 kts | 269° |
| 2026-05-07 21:51 | 51.46653 | -0.48688 | 100 ft | 12 kts | 271° |
| 2026-05-07 21:52 | 51.46611 | -0.48755 | 101 ft | 9 kts | 206° |
| 2026-05-07 21:52 | 51.46552 | -0.48779 | 100 ft | 0 kts | 184° |
| 2026-05-07 21:52 | 51.46551 | -0.48779 | 100 ft | 0 kts | 183° |
| 2026-05-07 21:52 | 51.46548 | -0.48779 | 100 ft | 0 kts | 182° |
| 2026-05-07 21:53 | 51.46545 | -0.48779 | 100 ft | 0 kts | 181° |
| 2026-05-07 21:53 | 51.46544 | -0.48779 | 99 ft | 0 kts | 181° |
| 2026-05-07 21:53 | 51.46543 | -0.48779 | 97 ft | 1 kts | 179° |
| 2026-05-07 21:53 | 51.46502 | -0.48741 | 101 ft | 10 kts | 136° |
| 2026-05-07 21:54 | 51.46479 | -0.48638 | 100 ft | 10 kts | 95° |
| 2026-05-07 21:54 | 51.46478 | -0.48593 | 98 ft | 0 kts | 91° |
| 2026-05-07 21:54 | 51.46478 | -0.48592 | 98 ft | 1 kts | 91° |
| 2026-05-07 21:55 | 51.46477 | -0.48365 | 100 ft | 53 kts | 89° |
| 2026-05-07 21:55 | 51.46481 | -0.47353 | 95 ft | 126 kts | 89° |
| 2026-05-07 21:55 | 51.46487 | -0.45604 | 115 ft | 185 kts | 91° |
| 2026-05-07 21:55 | 51.46511 | -0.43509 | 925 ft | 181 kts | 90° |
| 2026-05-07 21:56 | 51.46367 | -0.41541 | 1777 ft | 182 kts | 109° |
| 2026-05-07 21:56 | 51.45736 | -0.39738 | 2041 ft | 191 kts | 130° |
| 2026-05-07 21:56 | 51.44879 | -0.38063 | 2448 ft | 196 kts | 130° |
| 2026-05-07 21:56 | 51.44225 | -0.36066 | 2667 ft | 212 kts | 109° |
| 2026-05-07 21:57 | 51.43772 | -0.33708 | 2856 ft | 230 kts | 107° |
| 2026-05-07 21:57 | 51.43292 | -0.31160 | 3117 ft | 245 kts | 108° |
| 2026-05-07 21:57 | 51.42791 | -0.28506 | 3582 ft | 251 kts | 104° |
| 2026-05-07 21:57 | 51.42398 | -0.25767 | 4114 ft | 254 kts | 102° |
| 2026-05-07 21:58 | 51.42030 | -0.22981 | 4669 ft | 257 kts | 102° |
| 2026-05-07 21:58 | 51.41657 | -0.20177 | 5209 ft | 259 kts | 102° |
| 2026-05-07 21:58 | 51.41272 | -0.17330 | 5735 ft | 264 kts | 102° |
| 2026-05-07 21:58 | 51.40879 | -0.14435 | 6279 ft | 267 kts | 102° |
| 2026-05-07 21:59 | 51.40480 | -0.11498 | 6803 ft | 272 kts | 102° |
| 2026-05-07 21:59 | 51.40067 | -0.08513 | 7304 ft | 278 kts | 102° |
| 2026-05-07 21:59 | 51.39646 | -0.05475 | 7862 ft | 281 kts | 103° |
| 2026-05-07 21:59 | 51.39219 | -0.02401 | 8416 ft | 285 kts | 103° |
| 2026-05-07 22:00 | 51.38785 | 0.00714 | 9038 ft | 288 kts | 103° |
| 2026-05-07 22:00 | 51.38347 | 0.03855 | 9638 ft | 291 kts | 103° |
| 2026-05-07 22:00 | 51.37903 | 0.07036 | 10185 ft | 295 kts | 103° |
| 2026-05-07 22:00 | 51.37447 | 0.10303 | 10507 ft | 308 kts | 103° |
| 2026-05-07 22:01 | 51.36967 | 0.13728 | 10767 ft | 323 kts | 103° |
| 2026-05-07 22:01 | 51.36462 | 0.17316 | 11027 ft | 337 kts | 103° |
| 2026-05-07 22:01 | 51.35938 | 0.21052 | 11285 ft | 351 kts | 103° |
| 2026-05-07 22:01 | 51.35390 | 0.24938 | 11544 ft | 364 kts | 103° |
| 2026-05-07 22:02 | 51.34826 | 0.28903 | 11799 ft | 377 kts | 104° |
| 2026-05-07 22:02 | 51.34234 | 0.33059 | 12068 ft | 388 kts | 104° |
| 2026-05-07 22:02 | 51.33630 | 0.37297 | 12528 ft | 394 kts | 104° |
| 2026-05-07 22:02 | 51.33018 | 0.41578 | 13052 ft | 397 kts | 104° |
| 2026-05-07 22:03 | 51.32399 | 0.45902 | 13421 ft | 400 kts | 104° |
| 2026-05-07 22:03 | 51.31777 | 0.50259 | 13919 ft | 403 kts | 104° |
| 2026-05-07 22:03 | 51.31146 | 0.54642 | 14382 ft | 407 kts | 104° |
| 2026-05-07 22:03 | 51.30505 | 0.59071 | 14846 ft | 410 kts | 104° |
| 2026-05-07 22:04 | 51.29834 | 0.63518 | 15310 ft | 413 kts | 106° |
| 2026-05-07 22:04 | 51.29059 | 0.67943 | 15788 ft | 416 kts | 108° |
| 2026-05-07 22:04 | 51.28221 | 0.72389 | 16259 ft | 419 kts | 108° |
| 2026-05-07 22:04 | 51.27363 | 0.76847 | 16723 ft | 422 kts | 109° |
| 2026-05-07 22:05 | 51.26500 | 0.81340 | 17210 ft | 425 kts | 108° |
| 2026-05-07 22:05 | 51.25640 | 0.85879 | 17685 ft | 428 kts | 108° |
| 2026-05-07 22:05 | 51.24781 | 0.90441 | 18170 ft | 431 kts | 108° |
| 2026-05-07 22:05 | 51.23919 | 0.95049 | 18645 ft | 435 kts | 108° |
| 2026-05-07 22:06 | 51.23054 | 0.99691 | 19040 ft | 438 kts | 108° |
| 2026-05-07 22:06 | 51.22184 | 1.04363 | 19468 ft | 441 kts | 108° |
| 2026-05-07 22:06 | 51.21307 | 1.09071 | 19937 ft | 444 kts | 108° |
| 2026-05-07 22:06 | 51.20426 | 1.13795 | 20385 ft | 446 kts | 108° |
| 2026-05-07 22:07 | 51.19535 | 1.18555 | 20817 ft | 449 kts | 108° |
| 2026-05-07 22:07 | 51.18638 | 1.23337 | 21275 ft | 452 kts | 108° |
| 2026-05-07 22:07 | 51.17732 | 1.28152 | 21714 ft | 455 kts | 108° |
| 2026-05-07 22:07 | 51.16845 | 1.33001 | 22142 ft | 458 kts | 105° |
| 2026-05-07 22:08 | 51.16270 | 1.38016 | 22565 ft | 462 kts | 98° |
| 2026-05-07 22:08 | 51.15899 | 1.43115 | 22982 ft | 465 kts | 97° |
| 2026-05-07 22:08 | 51.15608 | 1.48267 | 23379 ft | 469 kts | 95° |
| 2026-05-07 22:08 | 51.15360 | 1.53461 | 23781 ft | 471 kts | 95° |
| 2026-05-07 22:09 | 51.15137 | 1.58626 | 24596 ft | 460 kts | 95° |
| 2026-05-07 22:09 | 51.14921 | 1.63668 | 25287 ft | 456 kts | 95° |
| 2026-05-07 22:09 | 51.14686 | 1.68735 | 25480 ft | 463 kts | 95° |
| 2026-05-07 22:09 | 51.14433 | 1.73891 | 25637 ft | 470 kts | 96° |
| 2026-05-07 22:10 | 51.14168 | 1.79111 | 25796 ft | 477 kts | 96° |
| 2026-05-07 22:10 | 51.13898 | 1.84344 | 25959 ft | 483 kts | 96° |
| 2026-05-07 22:10 | 51.13620 | 1.89701 | 26219 ft | 488 kts | 96° |
| 2026-05-07 22:10 | 51.13338 | 1.95102 | 26507 ft | 491 kts | 96° |
| 2026-05-07 22:11 | 51.13054 | 2.00530 | 26830 ft | 494 kts | 96° |
| 2026-05-07 22:11 | 51.12773 | 2.05988 | 27157 ft | 496 kts | 96° |
| 2026-05-07 22:11 | 51.12485 | 2.11471 | 27485 ft | 498 kts | 96° |
| 2026-05-07 22:11 | 51.12191 | 2.16981 | 27787 ft | 501 kts | 96° |
| 2026-05-07 22:12 | 51.11892 | 2.22510 | 28086 ft | 503 kts | 96° |
| 2026-05-07 22:12 | 51.11587 | 2.28072 | 28377 ft | 505 kts | 96° |
| 2026-05-07 22:12 | 51.11278 | 2.33652 | 28663 ft | 507 kts | 96° |
| 2026-05-07 22:12 | 51.10966 | 2.39255 | 28948 ft | 509 kts | 96° |
| 2026-05-07 22:13 | 51.10651 | 2.44859 | 29320 ft | 509 kts | 96° |
| 2026-05-07 22:13 | 51.10334 | 2.50453 | 29733 ft | 508 kts | 96° |
| 2026-05-07 22:13 | 51.10015 | 2.56050 | 30118 ft | 507 kts | 96° |
| 2026-05-07 22:13 | 51.09678 | 2.61623 | 30416 ft | 506 kts | 98° |
| 2026-05-07 22:14 | 51.09042 | 2.67111 | 30680 ft | 504 kts | 105° |
| 2026-05-07 22:14 | 51.08170 | 2.72519 | 30964 ft | 504 kts | 107° |
| 2026-05-07 22:14 | 51.07239 | 2.77877 | 31257 ft | 503 kts | 107° |
| 2026-05-07 22:14 | 51.06272 | 2.83223 | 31515 ft | 503 kts | 108° |
| 2026-05-07 22:15 | 51.05291 | 2.88548 | 31737 ft | 503 kts | 108° |
| 2026-05-07 22:15 | 51.04304 | 2.93879 | 31976 ft | 503 kts | 108° |
| 2026-05-07 22:15 | 51.03317 | 2.99211 | 32225 ft | 502 kts | 108° |
| 2026-05-07 22:15 | 51.02334 | 3.04535 | 32465 ft | 502 kts | 108° |
| 2026-05-07 22:16 | 51.01354 | 3.09850 | 32696 ft | 502 kts | 108° |
| 2026-05-07 22:16 | 51.00387 | 3.15092 | 32913 ft | 501 kts | 108° |
| 2026-05-07 22:16 | 50.99402 | 3.20398 | 33082 ft | 503 kts | 108° |
| 2026-05-07 22:16 | 50.98405 | 3.25737 | 33087 ft | 507 kts | 108° |
| 2026-05-07 22:17 | 50.96391 | 3.36483 | 33078 ft | 507 kts | 108° |
| 2026-05-07 22:17 | 50.94358 | 3.47194 | 33077 ft | 507 kts | 108° |
| 2026-05-07 22:18 | 50.91320 | 3.63255 | 33070 ft | 507 kts | 108° |
| 2026-05-07 22:19 | 50.89281 | 3.73954 | 33079 ft | 507 kts | 108° |
| 2026-05-07 22:19 | 50.87213 | 3.84621 | 33088 ft | 508 kts | 108° |
| 2026-05-07 22:20 | 50.85128 | 3.95319 | 33091 ft | 508 kts | 108° |
| 2026-05-07 22:20 | 50.83043 | 4.05996 | 33095 ft | 508 kts | 109° |
| 2026-05-07 22:20 | 50.81997 | 4.11290 | 33548 ft | 499 kts | 109° |
| 2026-05-07 22:21 | 50.80965 | 4.16446 | 34284 ft | 487 kts | 109° |
| 2026-05-07 22:21 | 50.79960 | 4.21537 | 34564 ft | 484 kts | 109° |
| 2026-05-07 22:21 | 50.78958 | 4.26632 | 34589 ft | 487 kts | 109° |
| 2026-05-07 22:21 | 50.77945 | 4.31774 | 34407 ft | 495 kts | 109° |
| 2026-05-07 22:22 | 50.76907 | 4.37019 | 34182 ft | 503 kts | 109° |
| 2026-05-07 22:22 | 50.75856 | 4.42304 | 33930 ft | 505 kts | 109° |
| 2026-05-07 22:22 | 50.74798 | 4.47603 | 33643 ft | 506 kts | 109° |
| 2026-05-07 22:22 | 50.73738 | 4.52898 | 33365 ft | 506 kts | 109° |
| 2026-05-07 22:23 | 50.72676 | 4.58191 | 33125 ft | 506 kts | 109° |
| 2026-05-07 22:23 | 50.70590 | 4.68730 | 33089 ft | 507 kts | 108° |
| 2026-05-07 22:24 | 50.68527 | 4.79432 | 33090 ft | 507 kts | 108° |
| 2026-05-07 22:24 | 50.66482 | 4.89979 | 33089 ft | 506 kts | 108° |
| 2026-05-07 22:25 | 50.64386 | 5.00539 | 33308 ft | 502 kts | 109° |
| 2026-05-07 22:25 | 50.63325 | 5.05743 | 33867 ft | 495 kts | 109° |
| 2026-05-07 22:25 | 50.62604 | 5.09216 | 33954 ft | 490 kts | 110° |
| 2026-05-07 22:25 | 50.61201 | 5.15920 | 33313 ft | 487 kts | 110° |
| 2026-05-07 22:26 | 50.60134 | 5.21005 | 33104 ft | 493 kts | 110° |
| 2026-05-07 22:26 | 50.58332 | 5.29600 | 33086 ft | 501 kts | 110° |
| 2026-05-07 22:27 | 50.56135 | 5.40093 | 33088 ft | 507 kts | 109° |
| 2026-05-07 22:27 | 50.53932 | 5.50614 | 33089 ft | 506 kts | 110° |
| 2026-05-07 22:28 | 50.51759 | 5.61147 | 33082 ft | 507 kts | 106° |
| 2026-05-07 22:28 | 50.50208 | 5.71968 | 33088 ft | 508 kts | 103° |
| 2026-05-07 22:29 | 50.48812 | 5.82839 | 33089 ft | 508 kts | 102° |
| 2026-05-07 22:29 | 50.47418 | 5.93697 | 33089 ft | 507 kts | 102° |
| 2026-05-07 22:30 | 50.45996 | 6.04549 | 33089 ft | 507 kts | 103° |
| 2026-05-07 22:30 | 50.44555 | 6.15404 | 33086 ft | 508 kts | 103° |
| 2026-05-07 22:31 | 50.43106 | 6.26250 | 33090 ft | 508 kts | 103° |
| 2026-05-07 22:31 | 50.41723 | 6.37110 | 33088 ft | 509 kts | 98° |
| 2026-05-07 22:32 | 50.40798 | 6.48122 | 33076 ft | 509 kts | 98° |
| 2026-05-07 22:32 | 50.39955 | 6.59136 | 33083 ft | 509 kts | 97° |
| 2026-05-07 22:33 | 50.39115 | 6.70143 | 33084 ft | 509 kts | 97° |
| 2026-05-07 22:33 | 50.38256 | 6.81154 | 33083 ft | 509 kts | 98° |
| 2026-05-07 22:34 | 50.37382 | 6.92153 | 33076 ft | 509 kts | 98° |
| 2026-05-07 22:34 | 50.36496 | 7.03150 | 33081 ft | 509 kts | 98° |
| 2026-05-07 22:35 | 50.35597 | 7.14150 | 33078 ft | 509 kts | 98° |